KAHN

Athens/Ben Epps Airport

Athens, Georgia, USA
METAR KAHN 181551Z 21003KT 7SM FEW004 13/11 A3020 RMK AO2 SLP226 T01280106
Observed Flight Rules
Dec-18 @ 15:51 UTC (42 minutes ago) Visual Flight Rules
Wind Visibility Clouds
210° at 3 knots 7 miles
  • Few at 400' AGL
Temperatures Readings
Current 13°C / 55°F
Dewpoint 11°C / 52°F
Humidity 88%
Altimeter 30.2" Hg
Pressure 1022.6 hPa
Elevation 244
METAR KAHN 181551Z 21003KT 7SM FEW004 13/11 A3020 RMK AO2 SLP226 T01280106
Observed Flight Rules
Dec-18 @ 15:51 UTC
(42 minutes ago)
VFR
Wind Visibility
210° at 3 knots 7 miles
Clouds
  • Few at 400' AGL
Temperature Dewpoint
13°C / 55°F 11°C / 52°F
Humidity Altimeter Pressure
88% 30.2" Hg 1022.6 hPa